Map

Track Data

SID SEASON NUMBER BASIN SUBBASIN NAME ISO_TIME NATURE LAT LON WMO_WIND WMO_PRES WMO_AGENCY TRACK_TYPE DIST2LAND LANDFALL IFLAG USA_AGENCY USA_ATCF_ID USA_LAT USA_LON USA_RECORD USA_STATUS USA_WIND USA_PRES USA_SSHS USA_R34_NE USA_R34_SE USA_R34_SW USA_R34_NW USA_R50_NE USA_R50_SE USA_R50_SW USA_R50_NW USA_R64_NE USA_R64_SE USA_R64_SW USA_R64_NW USA_POCI USA_ROCI USA_RMW USA_EYE TOKYO_LAT TOKYO_LON TOKYO_GRADE TOKYO_WIND TOKYO_PRES TOKYO_R50_DIR TOKYO_R50_LONG TOKYO_R50_SHORT TOKYO_R30_DIR TOKYO_R30_LONG TOKYO_R30_SHORT TOKYO_LAND CMA_LAT CMA_LON CMA_CAT CMA_WIND CMA_PRES HKO_LAT HKO_LON HKO_CAT HKO_WIND HKO_PRES NEWDELHI_LAT NEWDELHI_LON NEWDELHI_GRADE NEWDELHI_WIND NEWDELHI_PRES NEWDELHI_CI NEWDELHI_DP NEWDELHI_POCI REUNION_LAT REUNION_LON REUNION_TYPE REUNION_WIND REUNION_PRES REUNION_TNUM REUNION_CI REUNION_RMW REUNION_R34_NE REUNION_R34_SE REUNION_R34_SW REUNION_R34_NW REUNION_R50_NE REUNION_R50_SE REUNION_R50_SW REUNION_R50_NW REUNION_R64_NE REUNION_R64_SE REUNION_R64_SW REUNION_R64_NW BOM_LAT BOM_LON BOM_TYPE BOM_WIND BOM_PRES BOM_TNUM BOM_CI BOM_RMW BOM_R34_NE BOM_R34_SE BOM_R34_SW BOM_R34_NW BOM_R50_NE BOM_R50_SE BOM_R50_SW BOM_R50_NW BOM_R64_NE BOM_R64_SE BOM_R64_SW BOM_R64_NW BOM_ROCI BOM_POCI BOM_EYE BOM_POS_METHOD BOM_PRES_METHOD NADI_LAT NADI_LON NADI_CAT NADI_WIND NADI_PRES WELLINGTON_LAT WELLINGTON_LON WELLINGTON_WIND WELLINGTON_PRES DS824_LAT DS824_LON DS824_STAGE DS824_WIND DS824_PRES TD9636_LAT TD9636_LON TD9636_STAGE TD9636_WIND TD9636_PRES TD9635_LAT TD9635_LON TD9635_WIND TD9635_PRES TD9635_ROCI NEUMANN_LAT NEUMANN_LON NEUMANN_CLASS NEUMANN_WIND NEUMANN_PRES MLC_LAT MLC_LON MLC_CLASS MLC_WIND MLC_PRES USA_GUST BOM_GUST BOM_GUST_PER REUNION_GUST REUNION_GUST_PER USA_SEAHGT USA_SEARAD_NE USA_SEARAD_SE USA_SEARAD_SW USA_SEARAD_NW STORM_SPEED STORM_DIR
1878339N17087 1878 40 NI BB NOT_NAMED 1878-12-05 00:00:00 TS 16.7000 86.6000 main 315 300 _________O____ -1 16.7000 86.6000 TC 30 3 282
1878339N17087 1878 40 NI BB NOT_NAMED 1878-12-05 03:00:00 TS 16.7350 86.4367 main 300 276 _________PO___ -1 16.7525 86.3550 TC 30 16.7000 86.6000 1 4 281
1878339N17087 1878 40 NI BB NOT_NAMED 1878-12-05 06:00:00 TS 16.7770 86.1925 main 276 254 _________OP___ -1 16.8000 86.1000 TC 30 16.7425 86.3313 1 5 280
1878339N17087 1878 40 NI BB NOT_NAMED 1878-12-05 09:00:00 TS 16.8191 85.9357 main 254 230 _________PP___ -1 16.8425 85.8350 TC 30 16.7879 86.0701 1 5 281
1878339N17087 1878 40 NI BB NOT_NAMED 1878-12-05 12:00:00 TS 16.8696 85.7119 main 230 215 _________OP___ -1 16.9000 85.6000 TC 30 16.8393 85.8238 1 4 288
1878339N17087 1878 40 NI BB NOT_NAMED 1878-12-05 15:00:00 TS 16.9500 85.5212 main 215 200 _________PO___ -1 16.9999 85.4425 TC 30 16.9000 85.6000 1 4 296
1878339N17087 1878 40 NI BB NOT_NAMED 1878-12-05 18:00:00 TS 17.0359 85.3517 main 200 177 _________OP___ -1 17.1000 85.3000 TC 30 16.9717 85.4034 1 4 294
1878339N17087 1878 40 NI BB NOT_NAMED 1878-12-05 21:00:00 TS 17.1037 85.1675 main 177 155 _________PP___ -1 17.1575 85.1075 TC 30 17.0498 85.2275 1 4 290
1878339N17087 1878 40 NI BB NOT_NAMED 1878-12-06 00:00:00 TS 17.1640 84.9814 main 155 143 _________OP___ -1 17.2000 84.9000 TC 30 17.1280 85.0628 1 4 289
1878339N17087 1878 40 NI BB NOT_NAMED 1878-12-06 03:00:00 TS 17.2250 84.7962 main 143 123 _________PO___ -1 17.2500 84.6925 TC 30 17.2000 84.9000 1 4 288
1878339N17087 1878 40 NI BB NOT_NAMED 1878-12-06 06:00:00 TS 17.2765 84.6145 main 123 119 _________OP___ -1 17.3000 84.5000 TC 30 17.2531 84.7290 1 3 287
1878339N17087 1878 40 NI BB NOT_NAMED 1878-12-06 09:00:00 TS 17.3249 84.4537 main 119 99 _________PP___ -1 17.3500 84.3500 TC 30 17.2999 84.5574 1 3 287
1878339N17087 1878 40 NI BB NOT_NAMED 1878-12-06 12:00:00 TS 17.3734 84.2910 main 99 84 _________OP___ -1 17.4000 84.2000 TC 30 17.3468 84.3821 1 3 286
1878339N17087 1878 40 NI BB NOT_NAMED 1878-12-06 15:00:00 TS 17.4212 84.1037 main 84 61 _________PO___ -1 17.4425 84.0075 TC 30 17.4000 84.2000 1 4 287
1878339N17087 1878 40 NI BB NOT_NAMED 1878-12-06 18:00:00 TS 17.4860 83.8955 main 61 38 _________OP___ -1 17.5000 83.8000 TC 30 17.4719 83.9910 1 4 291
1878339N17087 1878 40 NI BB NOT_NAMED 1878-12-06 21:00:00 TS 17.5751 83.6813 main 38 15 _________PP___ -1 17.6000 83.5850 TC 30 17.5501 83.7776 1 4 295
1878339N17087 1878 40 NI BB NOT_NAMED 1878-12-07 00:00:00 TS 17.6641 83.4877 main 15 0 _________OP___ -1 17.7000 83.4000 TC 30 17.6282 83.5754 1 4 295
1878339N17087 1878 40 NI BB NOT_NAMED 1878-12-07 03:00:00 TS 17.7287 83.3425 main 0 0 _________PO___ -1 17.7575 83.2850 TC 30 17.7000 83.4000 1 3 295
1878339N17087 1878 40 NI BB NOT_NAMED 1878-12-07 06:00:00 TS 17.7765 83.2376 main 0 0 _________OP___ -1 17.8000 83.2000 TC 30 17.7530 83.2752 1 2 297
1878339N17087 1878 40 NI BB NOT_NAMED 1878-12-07 09:00:00 TS 17.8249 83.1424 main 0 0 _________PP___ -1 17.8500 83.1075 TC 30 17.7998 83.1773 1 2 298
1878339N17087 1878 40 NI BB NOT_NAMED 1878-12-07 12:00:00 TS 17.8734 83.0454 main 0 0 _________OP___ -1 17.9000 83.0000 TC 30 17.8468 83.0908 1 2 295
1878339N17087 1878 40 NI BB NOT_NAMED 1878-12-07 15:00:00 TS 17.9213 82.9250 main 0 0 _________PO___ -1 17.9425 82.8500 TC 30 17.9000 83.0000 1 2 295
1878339N17087 1878 40 NI BB NOT_NAMED 1878-12-07 18:00:00 TS 17.9795 82.8101 main 0 0 _________OP___ -1 18.0000 82.7000 TC 30 17.9642 82.8926 1 3 302
1878339N17087 1878 40 NI BB NOT_NAMED 1878-12-07 21:00:00 TS 18.0586 82.6971 main 0 0 _________PP___ -1 18.0900 82.5875 TC 30 18.0377 82.7702 1 3 309
1878339N17087 1878 40 NI BB NOT_NAMED 1878-12-08 00:00:00 TS 18.1449 82.5918 main 0 0 _________OP___ -1 18.2000 82.5000 TC 30 18.1173 82.6376 1 2 307
1878339N17087 1878 40 NI BB NOT_NAMED 1878-12-08 03:00:00 NR 18.2000 82.5000 main 0 __________O___ -1 TC 18.2000 82.5000 1 2 302

About IBTrACS Database

This database is a web-friendly format of International Best Track Archive for Climate Stewardship (IBTrACS), a global best track data archive curated by NOAA dating back to 1842.

Updated: 2021-10-19